Terminal Aerodrome Forecast
Issued by NWS

Home | Current Version | Previous Version | Text Only | Print | Product List | Glossary On
Versions: 1 2 3 4 5 6 7 8 9 10 11 12 13 14
148
FTUS45 KRIW 251231 AAA
TAFRKS
TAF AMD
KRKS 251231Z 2513/2612 29009KT P6SM VCSH SCT025 OVC040
      TEMPO 2513/2514 -SHRA OVC025
     FM251600 26012G18KT P6SM SCT070 BKN100
     FM252000 29016G28KT P6SM SCT080 BKN150
     FM260200 28011KT P6SM FEW090
     FM260700 09008KT P6SM FEW060 SCT090=

USA.gov is the U.S. government's official web portal to all federal, state and local government web resources and services.